sensor_id;sensor_type;location;lat;lon;timestamp;pressure;altitude;pressure_sealevel;temperature;humidity
76868;BME280;66168;45.478;11.060;2023-05-29T00:00:46;100537.70;;;21.37;50.42
76868;BME280;66168;45.478;11.060;2023-05-29T00:03:13;100535.92;;;21.30;50.47
76868;BME280;66168;45.478;11.060;2023-05-29T00:05:40;100532.57;;;21.22;50.79
76868;BME280;66168;45.478;11.060;2023-05-29T00:08:07;100534.08;;;21.10;51.04
76868;BME280;66168;45.478;11.060;2023-05-29T00:10:34;100534.83;;;20.99;51.34
76868;BME280;66168;45.478;11.060;2023-05-29T00:13:04;100532.62;;;20.93;51.20
76868;BME280;66168;45.478;11.060;2023-05-29T00:15:34;100539.97;;;20.86;51.49
76868;BME280;66168;45.478;11.060;2023-05-29T00:18:04;100539.95;;;20.78;51.85
76868;BME280;66168;45.478;11.060;2023-05-29T00:20:31;100540.80;;;20.68;52.02
76868;BME280;66168;45.478;11.060;2023-05-29T00:23:00;100543.25;;;20.61;52.14
76868;BME280;66168;45.478;11.060;2023-05-29T00:25:29;100541.77;;;20.53;52.31
76868;BME280;66168;45.478;11.060;2023-05-29T00:27:59;100542.55;;;20.48;52.24
76868;BME280;66168;45.478;11.060;2023-05-29T00:30:26;100545.83;;;20.47;52.37
76868;BME280;66168;45.478;11.060;2023-05-29T00:32:55;100544.45;;;20.48;52.35
76868;BME280;66168;45.478;11.060;2023-05-29T00:35:21;100544.21;;;20.50;52.25
76868;BME280;66168;45.478;11.060;2023-05-29T00:37:48;100546.59;;;20.53;52.27
76868;BME280;66168;45.478;11.060;2023-05-29T00:40:15;100548.55;;;20.59;52.16
76868;BME280;66168;45.478;11.060;2023-05-29T00:42:45;100551.05;;;20.64;52.23
76868;BME280;66168;45.478;11.060;2023-05-29T00:45:12;100546.08;;;20.61;52.42
76868;BME280;66168;45.478;11.060;2023-05-29T00:47:41;100549.86;;;20.61;52.24
76868;BME280;66168;45.478;11.060;2023-05-29T00:50:09;100545.00;;;20.64;52.03
76868;BME280;66168;45.478;11.060;2023-05-29T00:52:37;100543.10;;;20.71;51.86
76868;BME280;66168;45.478;11.060;2023-05-29T00:55:06;100546.27;;;20.78;51.68
76868;BME280;66168;45.478;11.060;2023-05-29T00:57:34;100542.77;;;20.83;51.53
76868;BME280;66168;45.478;11.060;2023-05-29T01:00:03;100550.40;;;20.80;52.35
76868;BME280;66168;45.478;11.060;2023-05-29T01:02:44;100549.90;;;20.63;52.81
76868;BME280;66168;45.478;11.060;2023-05-29T01:05:12;100553.42;;;20.51;53.05
76868;BME280;66168;45.478;11.060;2023-05-29T01:07:39;100555.80;;;20.45;53.33
76868;BME280;66168;45.478;11.060;2023-05-29T01:10:07;100552.33;;;20.39;53.46
76868;BME280;66168;45.478;11.060;2023-05-29T01:12:58;100556.69;;;20.35;53.65
76868;BME280;66168;45.478;11.060;2023-05-29T01:15:36;100556.75;;;20.26;53.71
76868;BME280;66168;45.478;11.060;2023-05-29T01:18:12;100556.89;;;20.11;54.13
76868;BME280;66168;45.478;11.060;2023-05-29T01:20:57;100556.40;;;20.03;54.27
76868;BME280;66168;45.478;11.060;2023-05-29T01:29:00;100551.61;;;19.95;54.80
76868;BME280;66168;45.478;11.060;2023-05-29T01:31:29;100548.17;;;19.99;54.86
76868;BME280;66168;45.478;11.060;2023-05-29T01:33:59;100550.27;;;20.04;54.82
76868;BME280;66168;45.478;11.060;2023-05-29T01:36:27;100548.38;;;20.10;54.62
76868;BME280;66168;45.478;11.060;2023-05-29T01:38:58;100550.70;;;20.15;54.28
76868;BME280;66168;45.478;11.060;2023-05-29T01:41:26;100551.17;;;20.14;54.47
76868;BME280;66168;45.478;11.060;2023-05-29T01:43:57;100548.23;;;20.05;54.92
76868;BME280;66168;45.478;11.060;2023-05-29T01:46:25;100550.09;;;19.98;55.30
76868;BME280;66168;45.478;11.060;2023-05-29T01:48:53;100546.38;;;19.95;54.92
76868;BME280;66168;45.478;11.060;2023-05-29T01:51:23;100548.19;;;19.92;55.20
76868;BME280;66168;45.478;11.060;2023-05-29T01:53:50;100551.41;;;19.83;55.51
76868;BME280;66168;45.478;11.060;2023-05-29T01:56:18;100556.12;;;19.69;55.80
76868;BME280;66168;45.478;11.060;2023-05-29T01:58:45;100559.30;;;19.59;56.11
76868;BME280;66168;45.478;11.060;2023-05-29T02:01:13;100561.23;;;19.54;56.51
76868;BME280;66168;45.478;11.060;2023-05-29T02:03:40;100560.35;;;19.53;56.82
76868;BME280;66168;45.478;11.060;2023-05-29T02:06:07;100560.98;;;19.57;56.71
76868;BME280;66168;45.478;11.060;2023-05-29T02:08:36;100562.55;;;19.62;56.46
76868;BME280;66168;45.478;11.060;2023-05-29T02:11:03;100565.66;;;19.63;56.51
76868;BME280;66168;45.478;11.060;2023-05-29T02:13:29;100566.73;;;19.66;56.55
76868;BME280;66168;45.478;11.060;2023-05-29T02:15:56;100569.70;;;19.71;56.60
76868;BME280;66168;45.478;11.060;2023-05-29T02:18:23;100574.52;;;19.78;56.66
76868;BME280;66168;45.478;11.060;2023-05-29T02:20:50;100581.48;;;19.86;56.69
76868;BME280;66168;45.478;11.060;2023-05-29T02:23:21;100584.52;;;19.92;57.87
76868;BME280;66168;45.478;11.060;2023-05-29T02:25:50;100590.71;;;19.96;58.57
76868;BME280;66168;45.478;11.060;2023-05-29T02:28:17;100606.92;;;19.94;59.15
76868;BME280;66168;45.478;11.060;2023-05-29T02:30:45;100611.52;;;19.82;60.87
76868;BME280;66168;45.478;11.060;2023-05-29T02:33:12;100600.64;;;19.59;62.00
76868;BME280;66168;45.478;11.060;2023-05-29T02:35:39;100596.14;;;19.44;63.30
76868;BME280;66168;45.478;11.060;2023-05-29T02:38:06;100592.59;;;19.37;63.75
76868;BME280;66168;45.478;11.060;2023-05-29T02:40:33;100590.59;;;19.32;64.74
76868;BME280;66168;45.478;11.060;2023-05-29T02:42:59;100595.04;;;19.32;65.32
76868;BME280;66168;45.478;11.060;2023-05-29T02:45:27;100596.49;;;19.32;65.75
76868;BME280;66168;45.478;11.060;2023-05-29T02:47:54;100599.67;;;19.30;66.29
76868;BME280;66168;45.478;11.060;2023-05-29T02:50:21;100600.96;;;19.30;66.31
76868;BME280;66168;45.478;11.060;2023-05-29T02:52:48;100603.09;;;19.32;66.91
76868;BME280;66168;45.478;11.060;2023-05-29T02:55:15;100601.46;;;19.35;66.53
76868;BME280;66168;45.478;11.060;2023-05-29T02:57:42;100604.30;;;19.39;67.17
76868;BME280;66168;45.478;11.060;2023-05-29T03:00:12;100612.64;;;19.43;67.34
76868;BME280;66168;45.478;11.060;2023-05-29T03:02:40;100612.70;;;19.47;67.52
76868;BME280;66168;45.478;11.060;2023-05-29T03:05:07;100609.41;;;19.49;67.62
76868;BME280;66168;45.478;11.060;2023-05-29T03:07:35;100611.98;;;19.50;67.81
76868;BME280;66168;45.478;11.060;2023-05-29T03:10:01;100618.06;;;19.52;67.99
76868;BME280;66168;45.478;11.060;2023-05-29T03:12:30;100618.50;;;19.52;67.96
76868;BME280;66168;45.478;11.060;2023-05-29T03:14:57;100612.34;;;19.54;68.25
76868;BME280;66168;45.478;11.060;2023-05-29T03:17:25;100622.83;;;19.56;68.25
76868;BME280;66168;45.478;11.060;2023-05-29T03:19:55;100621.86;;;19.55;68.61
76868;BME280;66168;45.478;11.060;2023-05-29T03:22:22;100626.77;;;19.55;68.69
76868;BME280;66168;45.478;11.060;2023-05-29T03:24:49;100623.48;;;19.55;68.80
76868;BME280;66168;45.478;11.060;2023-05-29T03:27:16;100622.80;;;19.56;68.79
76868;BME280;66168;45.478;11.060;2023-05-29T03:29:44;100617.27;;;19.55;68.96
76868;BME280;66168;45.478;11.060;2023-05-29T03:32:11;100618.36;;;19.55;69.01
76868;BME280;66168;45.478;11.060;2023-05-29T03:34:38;100613.20;;;19.54;68.77
76868;BME280;66168;45.478;11.060;2023-05-29T03:37:06;100611.13;;;19.53;69.03
76868;BME280;66168;45.478;11.060;2023-05-29T03:39:35;100609.55;;;19.52;69.33
76868;BME280;66168;45.478;11.060;2023-05-29T03:42:02;100608.67;;;19.52;69.54
76868;BME280;66168;45.478;11.060;2023-05-29T03:44:29;100606.38;;;19.49;69.36
76868;BME280;66168;45.478;11.060;2023-05-29T03:46:57;100607.23;;;19.43;69.36
76868;BME280;66168;45.478;11.060;2023-05-29T03:49:24;100605.23;;;19.39;69.40
76868;BME280;66168;45.478;11.060;2023-05-29T03:51:51;100606.17;;;19.36;69.50
76868;BME280;66168;45.478;11.060;2023-05-29T03:54:19;100607.81;;;19.35;69.28
76868;BME280;66168;45.478;11.060;2023-05-29T03:56:46;100608.86;;;19.34;69.04
76868;BME280;66168;45.478;11.060;2023-05-29T03:59:14;100605.04;;;19.32;69.43
76868;BME280;66168;45.478;11.060;2023-05-29T04:01:41;100611.64;;;19.32;69.57
76868;BME280;66168;45.478;11.060;2023-05-29T04:04:08;100611.12;;;19.31;69.73
76868;BME280;66168;45.478;11.060;2023-05-29T04:06:35;100612.15;;;19.31;69.63
76868;BME280;66168;45.478;11.060;2023-05-29T04:09:06;100612.49;;;19.32;69.81
76868;BME280;66168;45.478;11.060;2023-05-29T04:11:33;100614.01;;;19.34;69.73
76868;BME280;66168;45.478;11.060;2023-05-29T04:14:03;100611.05;;;19.35;69.69
76868;BME280;66168;45.478;11.060;2023-05-29T04:16:31;100612.29;;;19.37;69.72
76868;BME280;66168;45.478;11.060;2023-05-29T04:18:59;100612.58;;;19.38;69.92
76868;BME280;66168;45.478;11.060;2023-05-29T04:21:28;100612.98;;;19.39;70.05
76868;BME280;66168;45.478;11.060;2023-05-29T04:23:56;100614.42;;;19.40;70.12
76868;BME280;66168;45.478;11.060;2023-05-29T04:26:24;100617.33;;;19.41;70.00
76868;BME280;66168;45.478;11.060;2023-05-29T04:28:54;100619.94;;;19.40;69.89
76868;BME280;66168;45.478;11.060;2023-05-29T04:31:27;100621.07;;;19.38;69.87
76868;BME280;66168;45.478;11.060;2023-05-29T04:33:56;100627.26;;;19.38;69.80
76868;BME280;66168;45.478;11.060;2023-05-29T04:36:24;100630.29;;;19.42;69.78
76868;BME280;66168;45.478;11.060;2023-05-29T04:39:03;100629.73;;;19.48;69.97
76868;BME280;66168;45.478;11.060;2023-05-29T04:41:30;100634.30;;;19.52;69.93
76868;BME280;66168;45.478;11.060;2023-05-29T04:43:59;100633.56;;;19.57;69.88
76868;BME280;66168;45.478;11.060;2023-05-29T04:46:31;100632.64;;;19.62;69.72
76868;BME280;66168;45.478;11.060;2023-05-29T04:48:58;100633.30;;;19.67;69.40
76868;BME280;66168;45.478;11.060;2023-05-29T04:51:25;100633.98;;;19.73;69.23
76868;BME280;66168;45.478;11.060;2023-05-29T04:53:55;100637.69;;;19.74;68.72
76868;BME280;66168;45.478;11.060;2023-05-29T04:56:23;100639.60;;;19.76;68.63
76868;BME280;66168;45.478;11.060;2023-05-29T04:58:50;100642.61;;;19.84;68.73
76868;BME280;66168;45.478;11.060;2023-05-29T05:01:17;100641.36;;;19.92;69.00
76868;BME280;66168;45.478;11.060;2023-05-29T05:03:44;100640.61;;;19.99;69.05
76868;BME280;66168;45.478;11.060;2023-05-29T05:06:12;100637.45;;;20.04;68.88
76868;BME280;66168;45.478;11.060;2023-05-29T05:08:40;100635.97;;;20.12;68.80
76868;BME280;66168;45.478;11.060;2023-05-29T05:11:07;100637.86;;;20.20;68.79
76868;BME280;66168;45.478;11.060;2023-05-29T05:13:34;100638.36;;;20.25;68.54
76868;BME280;66168;45.478;11.060;2023-05-29T05:16:01;100641.09;;;20.29;68.88
76868;BME280;66168;45.478;11.060;2023-05-29T05:18:28;100638.27;;;20.38;68.84
76868;BME280;66168;45.478;11.060;2023-05-29T05:21:03;100633.23;;;20.49;68.98
76868;BME280;66168;45.478;11.060;2023-05-29T05:23:30;100628.38;;;20.58;69.01
76868;BME280;66168;45.478;11.060;2023-05-29T05:26:10;100630.08;;;20.68;68.90
76868;BME280;66168;45.478;11.060;2023-05-29T05:28:37;100631.76;;;20.76;68.76
76868;BME280;66168;45.478;11.060;2023-05-29T05:31:04;100631.98;;;20.83;68.24
76868;BME280;66168;45.478;11.060;2023-05-29T05:33:31;100624.57;;;20.88;68.36
76868;BME280;66168;45.478;11.060;2023-05-29T05:35:59;100621.05;;;20.97;68.35
76868;BME280;66168;45.478;11.060;2023-05-29T05:38:26;100620.48;;;21.08;68.32
76868;BME280;66168;45.478;11.060;2023-05-29T05:40:53;100615.05;;;21.19;68.17
76868;BME280;66168;45.478;11.060;2023-05-29T05:43:25;100618.51;;;21.28;68.60
76868;BME280;66168;45.478;11.060;2023-05-29T05:46:17;100616.77;;;21.41;68.50
76868;BME280;66168;45.478;11.060;2023-05-29T05:48:45;100617.27;;;21.53;68.49
76868;BME280;66168;45.478;11.060;2023-05-29T05:51:12;100613.73;;;21.64;68.33
76868;BME280;66168;45.478;11.060;2023-05-29T05:53:40;100604.98;;;21.77;68.04
76868;BME280;66168;45.478;11.060;2023-05-29T05:56:07;100610.45;;;21.87;67.85
76868;BME280;66168;45.478;11.060;2023-05-29T05:58:34;100606.27;;;22.00;67.96
76868;BME280;66168;45.478;11.060;2023-05-29T06:01:03;100607.63;;;22.16;67.89
76868;BME280;66168;45.478;11.060;2023-05-29T06:03:31;100604.81;;;22.28;67.99
76868;BME280;66168;45.478;11.060;2023-05-29T06:06:02;100604.45;;;22.43;67.78
76868;BME280;66168;45.478;11.060;2023-05-29T06:08:32;100603.53;;;22.56;67.42
76868;BME280;66168;45.478;11.060;2023-05-29T06:11:00;100602.83;;;22.73;67.03
76868;BME280;66168;45.478;11.060;2023-05-29T06:13:27;100604.27;;;22.93;66.40
76868;BME280;66168;45.478;11.060;2023-05-29T06:15:58;100602.25;;;23.12;65.69
76868;BME280;66168;45.478;11.060;2023-05-29T06:18:25;100604.30;;;23.31;65.07
76868;BME280;66168;45.478;11.060;2023-05-29T06:20:53;100600.11;;;23.48;64.68
76868;BME280;66168;45.478;11.060;2023-05-29T06:23:21;100604.62;;;23.66;64.05
76868;BME280;66168;45.478;11.060;2023-05-29T06:25:48;100599.19;;;23.84;62.85
76868;BME280;66168;45.478;11.060;2023-05-29T06:28:15;100596.09;;;23.96;61.09
76868;BME280;66168;45.478;11.060;2023-05-29T06:30:42;100599.77;;;24.12;61.38
76868;BME280;66168;45.478;11.060;2023-05-29T06:33:19;100603.42;;;24.28;60.98
76868;BME280;66168;45.478;11.060;2023-05-29T06:35:48;100598.55;;;24.39;60.00
76868;BME280;66168;45.478;11.060;2023-05-29T06:38:18;100596.73;;;24.48;59.46
76868;BME280;66168;45.478;11.060;2023-05-29T06:40:45;100598.93;;;24.53;57.16
76868;BME280;66168;45.478;11.060;2023-05-29T06:43:12;100601.43;;;24.55;56.56
76868;BME280;66168;45.478;11.060;2023-05-29T06:45:45;100605.04;;;24.64;55.92
76868;BME280;66168;45.478;11.060;2023-05-29T06:48:12;100608.48;;;24.75;55.92
76868;BME280;66168;45.478;11.060;2023-05-29T06:50:39;100611.88;;;24.82;54.73
76868;BME280;66168;45.478;11.060;2023-05-29T06:53:31;100614.61;;;24.89;53.33
76868;BME280;66168;45.478;11.060;2023-05-29T06:55:59;100616.81;;;24.99;53.56
76868;BME280;66168;45.478;11.060;2023-05-29T06:58:26;100614.70;;;25.07;52.78
76868;BME280;66168;45.478;11.060;2023-05-29T07:00:54;100616.80;;;25.01;51.64
76868;BME280;66168;45.478;11.060;2023-05-29T07:03:27;100613.27;;;24.99;51.42
76868;BME280;66168;45.478;11.060;2023-05-29T07:05:55;100613.44;;;25.05;51.04
76868;BME280;66168;45.478;11.060;2023-05-29T07:08:24;100612.03;;;25.17;50.93
76868;BME280;66168;45.478;11.060;2023-05-29T07:10:52;100613.71;;;25.28;50.55
76868;BME280;66168;45.478;11.060;2023-05-29T07:13:20;100617.90;;;25.33;50.00
76868;BME280;66168;45.478;11.060;2023-05-29T07:15:50;100619.90;;;25.41;49.79
76868;BME280;66168;45.478;11.060;2023-05-29T07:18:20;100617.58;;;25.52;49.07
76868;BME280;66168;45.478;11.060;2023-05-29T07:20:47;100615.23;;;25.57;48.95
76868;BME280;66168;45.478;11.060;2023-05-29T07:23:16;100618.71;;;25.56;48.00
76868;BME280;66168;45.478;11.060;2023-05-29T07:25:43;100618.06;;;25.57;48.21
76868;BME280;66168;45.478;11.060;2023-05-29T07:28:10;100623.45;;;25.60;47.72
76868;BME280;66168;45.478;11.060;2023-05-29T07:30:48;100623.10;;;25.66;47.76
76868;BME280;66168;45.478;11.060;2023-05-29T07:33:15;100624.45;;;25.79;47.08
76868;BME280;66168;45.478;11.060;2023-05-29T07:35:43;100623.38;;;25.87;46.86
76868;BME280;66168;45.478;11.060;2023-05-29T07:38:10;100622.99;;;26.03;45.68
76868;BME280;66168;45.478;11.060;2023-05-29T07:40:38;100621.33;;;26.18;45.72
76868;BME280;66168;45.478;11.060;2023-05-29T07:43:26;100623.61;;;26.35;45.18
76868;BME280;66168;45.478;11.060;2023-05-29T07:45:56;100626.80;;;26.50;45.39
76868;BME280;66168;45.478;11.060;2023-05-29T07:48:24;100622.52;;;26.63;45.00
76868;BME280;66168;45.478;11.060;2023-05-29T07:50:51;100619.97;;;26.81;44.30
76868;BME280;66168;45.478;11.060;2023-05-29T07:53:19;100624.46;;;26.95;44.41
76868;BME280;66168;45.478;11.060;2023-05-29T07:55:46;100627.06;;;27.05;44.11
76868;BME280;66168;45.478;11.060;2023-05-29T07:58:13;100627.14;;;27.22;43.98
76868;BME280;66168;45.478;11.060;2023-05-29T08:00:47;100628.71;;;27.31;43.33
76868;BME280;66168;45.478;11.060;2023-05-29T08:03:14;100627.18;;;27.42;43.56
76868;BME280;66168;45.478;11.060;2023-05-29T08:06:08;100631.57;;;27.50;43.59
76868;BME280;66168;45.478;11.060;2023-05-29T08:08:35;100633.61;;;27.63;42.71
76868;BME280;66168;45.478;11.060;2023-05-29T08:11:02;100632.51;;;27.66;41.90
76868;BME280;66168;45.478;11.060;2023-05-29T08:13:30;100631.94;;;27.72;41.98
76868;BME280;66168;45.478;11.060;2023-05-29T08:15:57;100629.34;;;27.81;42.10
76868;BME280;66168;45.478;11.060;2023-05-29T08:18:26;100628.48;;;27.74;41.62
76868;BME280;66168;45.478;11.060;2023-05-29T08:20:53;100631.05;;;27.75;41.44
76868;BME280;66168;45.478;11.060;2023-05-29T08:23:20;100629.75;;;27.62;41.23
76868;BME280;66168;45.478;11.060;2023-05-29T08:25:47;100629.16;;;27.47;40.40
76868;BME280;66168;45.478;11.060;2023-05-29T08:28:15;100630.16;;;27.27;40.81
76868;BME280;66168;45.478;11.060;2023-05-29T08:30:42;100626.63;;;27.37;41.54
76868;BME280;66168;45.478;11.060;2023-05-29T08:33:09;100628.14;;;27.48;41.01
76868;BME280;66168;45.478;11.060;2023-05-29T08:35:36;100631.71;;;27.46;40.95
76868;BME280;66168;45.478;11.060;2023-05-29T08:38:03;100633.69;;;27.50;40.72
76868;BME280;66168;45.478;11.060;2023-05-29T08:40:30;100635.13;;;27.41;40.21
76868;BME280;66168;45.478;11.060;2023-05-29T08:45:34;100635.58;;;27.37;40.56
76868;BME280;66168;45.478;11.060;2023-05-29T08:48:05;100634.45;;;27.50;40.24
76868;BME280;66168;45.478;11.060;2023-05-29T08:50:34;100637.80;;;27.47;39.42
76868;BME280;66168;45.478;11.060;2023-05-29T08:53:01;100634.55;;;27.37;39.79
76868;BME280;66168;45.478;11.060;2023-05-29T08:55:30;100633.50;;;27.39;40.01
76868;BME280;66168;45.478;11.060;2023-05-29T08:57:58;100629.69;;;27.58;39.54
76868;BME280;66168;45.478;11.060;2023-05-29T09:00:25;100629.34;;;27.75;40.13
76868;BME280;66168;45.478;11.060;2023-05-29T09:02:55;100623.46;;;27.83;39.52
76868;BME280;66168;45.478;11.060;2023-05-29T09:05:23;100628.13;;;27.86;40.01
76868;BME280;66168;45.478;11.060;2023-05-29T09:07:50;100631.02;;;27.87;39.72
76868;BME280;66168;45.478;11.060;2023-05-29T09:10:17;100628.02;;;27.86;39.75
76868;BME280;66168;45.478;11.060;2023-05-29T09:12:46;100630.91;;;27.81;39.38
76868;BME280;66168;45.478;11.060;2023-05-29T09:15:20;100628.42;;;27.74;39.84
76868;BME280;66168;45.478;11.060;2023-05-29T09:17:56;100633.88;;;27.75;39.76
76868;BME280;66168;45.478;11.060;2023-05-29T09:20:25;100629.71;;;27.76;40.21
76868;BME280;66168;45.478;11.060;2023-05-29T09:23:08;100633.03;;;27.96;40.20
76868;BME280;66168;45.478;11.060;2023-05-29T09:25:40;100633.55;;;28.05;39.88
76868;BME280;66168;45.478;11.060;2023-05-29T09:28:11;100635.77;;;28.02;39.68
76868;BME280;66168;45.478;11.060;2023-05-29T09:30:41;100637.46;;;28.02;39.29
76868;BME280;66168;45.478;11.060;2023-05-29T09:33:10;100636.35;;;28.04;39.47
76868;BME280;66168;45.478;11.060;2023-05-29T09:35:45;100635.75;;;28.10;39.69
76868;BME280;66168;45.478;11.060;2023-05-29T09:38:15;100636.05;;;28.17;39.42
76868;BME280;66168;45.478;11.060;2023-05-29T09:41:05;100637.63;;;28.22;38.48
76868;BME280;66168;45.478;11.060;2023-05-29T09:43:32;100640.67;;;28.04;38.75
76868;BME280;66168;45.478;11.060;2023-05-29T09:46:00;100639.53;;;28.14;39.09
76868;BME280;66168;45.478;11.060;2023-05-29T09:48:29;100641.20;;;28.21;39.10
76868;BME280;66168;45.478;11.060;2023-05-29T09:50:57;100641.06;;;28.36;38.84
76868;BME280;66168;45.478;11.060;2023-05-29T09:53:28;100640.96;;;28.51;38.70
76868;BME280;66168;45.478;11.060;2023-05-29T09:55:56;100635.54;;;28.60;38.16
76868;BME280;66168;45.478;11.060;2023-05-29T09:58:24;100640.52;;;28.73;37.95
76868;BME280;66168;45.478;11.060;2023-05-29T10:00:52;100638.92;;;28.74;38.05
76868;BME280;66168;45.478;11.060;2023-05-29T10:03:20;100639.75;;;28.81;37.86
76868;BME280;66168;45.478;11.060;2023-05-29T10:05:53;100642.13;;;28.90;38.01
76868;BME280;66168;45.478;11.060;2023-05-29T10:08:29;100640.09;;;28.89;38.00
76868;BME280;66168;45.478;11.060;2023-05-29T10:11:01;100640.35;;;28.84;37.81
76868;BME280;66168;45.478;11.060;2023-05-29T10:13:36;100637.11;;;28.92;37.99
76868;BME280;66168;45.478;11.060;2023-05-29T10:16:04;100631.64;;;29.06;37.76
76868;BME280;66168;45.478;11.060;2023-05-29T10:18:44;100634.09;;;29.13;37.76
76868;BME280;66168;45.478;11.060;2023-05-29T10:21:12;100632.92;;;29.21;37.51
76868;BME280;66168;45.478;11.060;2023-05-29T10:23:43;100630.02;;;29.32;36.91
76868;BME280;66168;45.478;11.060;2023-05-29T10:26:21;100627.61;;;29.51;36.72
76868;BME280;66168;45.478;11.060;2023-05-29T10:34:39;100623.60;;;29.72;36.79
76868;BME280;66168;45.478;11.060;2023-05-29T10:39:53;100623.06;;;29.93;36.94
76868;BME280;66168;45.478;11.060;2023-05-29T10:42:49;100618.91;;;29.97;36.71
76868;BME280;66168;45.478;11.060;2023-05-29T10:50:44;100618.20;;;30.13;35.26
76868;BME280;66168;45.478;11.060;2023-05-29T10:53:18;100615.30;;;30.09;36.10
76868;BME280;66168;45.478;11.060;2023-05-29T10:55:50;100610.91;;;30.18;35.93
76868;BME280;66168;45.478;11.060;2023-05-29T10:58:22;100604.92;;;30.13;35.94
76868;BME280;66168;45.478;11.060;2023-05-29T11:00:53;100607.05;;;30.13;35.63
76868;BME280;66168;45.478;11.060;2023-05-29T11:03:23;100602.96;;;30.20;35.70
76868;BME280;66168;45.478;11.060;2023-05-29T11:05:56;100601.84;;;30.29;35.81
76868;BME280;66168;45.478;11.060;2023-05-29T11:08:43;100598.61;;;30.27;35.53
76868;BME280;66168;45.478;11.060;2023-05-29T11:11:15;100604.15;;;30.23;35.58
76868;BME280;66168;45.478;11.060;2023-05-29T11:13:52;100604.70;;;30.16;35.24
76868;BME280;66168;45.478;11.060;2023-05-29T11:18:47;100598.14;;;29.86;35.29
76868;BME280;66168;45.478;11.060;2023-05-29T11:21:34;100591.14;;;29.93;35.66
76868;BME280;66168;45.478;11.060;2023-05-29T11:24:09;100593.67;;;29.80;35.79
76868;BME280;66168;45.478;11.060;2023-05-29T11:26:45;100589.33;;;29.46;36.47
76868;BME280;66168;45.478;11.060;2023-05-29T11:29:11;100586.82;;;29.17;36.78
76868;BME280;66168;45.478;11.060;2023-05-29T11:31:43;100581.38;;;29.01;37.01
76868;BME280;66168;45.478;11.060;2023-05-29T11:34:14;100579.58;;;28.88;37.70
76868;BME280;66168;45.478;11.060;2023-05-29T11:36:42;100576.42;;;28.85;37.79
76868;BME280;66168;45.478;11.060;2023-05-29T11:39:10;100580.14;;;28.97;37.78
76868;BME280;66168;45.478;11.060;2023-05-29T11:41:37;100582.04;;;29.18;37.64
76868;BME280;66168;45.478;11.060;2023-05-29T11:44:04;100583.64;;;29.34;36.79
76868;BME280;66168;45.478;11.060;2023-05-29T11:46:34;100588.64;;;29.62;37.29
76868;BME280;66168;45.478;11.060;2023-05-29T11:49:01;100582.63;;;29.82;36.45
76868;BME280;66168;45.478;11.060;2023-05-29T11:51:29;100584.42;;;29.73;36.57
76868;BME280;66168;45.478;11.060;2023-05-29T11:53:56;100576.98;;;29.63;36.25
76868;BME280;66168;45.478;11.060;2023-05-29T11:56:29;100576.70;;;29.56;36.51
76868;BME280;66168;45.478;11.060;2023-05-29T11:58:58;100573.55;;;29.52;36.89
76868;BME280;66168;45.478;11.060;2023-05-29T12:01:27;100577.48;;;29.37;36.56
76868;BME280;66168;45.478;11.060;2023-05-29T12:03:57;100575.21;;;29.16;37.03
76868;BME280;66168;45.478;11.060;2023-05-29T12:06:35;100579.27;;;29.06;37.08
76868;BME280;66168;45.478;11.060;2023-05-29T12:09:05;100579.98;;;28.90;37.42
76868;BME280;66168;45.478;11.060;2023-05-29T12:11:32;100576.33;;;28.72;37.34
76868;BME280;66168;45.478;11.060;2023-05-29T12:14:01;100578.77;;;28.61;37.67
76868;BME280;66168;45.478;11.060;2023-05-29T12:16:33;100574.76;;;28.55;37.77
76868;BME280;66168;45.478;11.060;2023-05-29T12:19:01;100577.56;;;28.50;37.78
76868;BME280;66168;45.478;11.060;2023-05-29T12:21:28;100578.50;;;28.42;37.94
76868;BME280;66168;45.478;11.060;2023-05-29T12:23:58;100574.53;;;28.39;38.22
76868;BME280;66168;45.478;11.060;2023-05-29T12:26:36;100580.72;;;28.47;38.38
76868;BME280;66168;45.478;11.060;2023-05-29T12:29:04;100582.07;;;28.71;38.16
76868;BME280;66168;45.478;11.060;2023-05-29T12:31:32;100579.73;;;29.08;38.56
76868;BME280;66168;45.478;11.060;2023-05-29T12:34:02;100571.58;;;29.51;38.47
76868;BME280;66168;45.478;11.060;2023-05-29T12:36:33;100569.88;;;29.99;37.95
76868;BME280;66168;45.478;11.060;2023-05-29T12:39:06;100563.56;;;30.27;37.10
76868;BME280;66168;45.478;11.060;2023-05-29T12:41:36;100557.60;;;30.40;36.29
76868;BME280;66168;45.478;11.060;2023-05-29T12:44:05;100558.49;;;30.61;36.24
76868;BME280;66168;45.478;11.060;2023-05-29T12:46:42;100558.93;;;30.88;35.81
76868;BME280;66168;45.478;11.060;2023-05-29T12:49:16;100556.66;;;31.02;35.46
76868;BME280;66168;45.478;11.060;2023-05-29T12:51:46;100559.27;;;30.96;35.51
76868;BME280;66168;45.478;11.060;2023-05-29T12:54:14;100556.08;;;30.92;35.16
76868;BME280;66168;45.478;11.060;2023-05-29T12:56:42;100551.31;;;30.80;35.54
76868;BME280;66168;45.478;11.060;2023-05-29T12:59:10;100551.29;;;30.64;35.81
76868;BME280;66168;45.478;11.060;2023-05-29T13:01:38;100548.33;;;30.45;36.00
76868;BME280;66168;45.478;11.060;2023-05-29T13:04:06;100548.61;;;30.25;36.83
76868;BME280;66168;45.478;11.060;2023-05-29T13:06:39;100546.39;;;30.17;37.03
76868;BME280;66168;45.478;11.060;2023-05-29T13:09:06;100535.13;;;30.35;37.10
76868;BME280;66168;45.478;11.060;2023-05-29T13:11:34;100530.95;;;30.58;37.17
76868;BME280;66168;45.478;11.060;2023-05-29T13:14:04;100533.70;;;30.88;36.61
76868;BME280;66168;45.478;11.060;2023-05-29T13:16:31;100529.98;;;31.16;36.51